createdAt,value
2022-11-23T00:05:53.222Z,37.50
2022-11-23T00:12:07.355Z,37.90
2022-11-23T00:18:22.498Z,37.30
2022-11-23T00:24:36.781Z,37.20
2022-11-23T00:30:57.419Z,36.50
2022-11-23T00:37:09.998Z,37.20
2022-11-23T00:43:24.555Z,38.20
2022-11-23T00:49:38.654Z,38.10
2022-11-23T00:55:58.794Z,37.20
2022-11-23T01:02:20.790Z,37.60
2022-11-23T01:08:31.079Z,38.10
2022-11-23T01:14:50.206Z,39.00
2022-11-23T01:21:12.523Z,38.60
2022-11-23T01:27:29.750Z,38.40
2022-11-23T01:33:48.321Z,38.50
2022-11-23T01:40:00.935Z,38.50
2022-11-23T01:46:15.633Z,38.30
2022-11-23T01:52:33.285Z,38.30
2022-11-23T01:58:49.167Z,38.30
2022-11-23T02:05:01.770Z,38.20
2022-11-23T02:11:22.513Z,38.70
2022-11-23T02:17:50.858Z,38.10
2022-11-23T02:24:04.894Z,38.00
2022-11-23T02:30:24.839Z,37.90
2022-11-23T02:36:46.402Z,37.70
2022-11-23T02:43:03.041Z,37.70
2022-11-23T02:49:15.235Z,37.90
2022-11-23T02:55:36.566Z,39.30
2022-11-23T03:01:52.072Z,40.30
2022-11-23T03:08:11.476Z,39.90
2022-11-23T03:14:29.318Z,40.20
2022-11-23T03:20:42.357Z,40.10
2022-11-23T03:26:57.710Z,39.90
2022-11-23T03:33:13.563Z,39.50
2022-11-23T03:39:27.260Z,39.00
2022-11-23T03:45:41.000Z,39.00
2022-11-23T03:51:57.940Z,38.80
2022-11-23T03:58:18.822Z,39.20
2022-11-23T04:04:34.895Z,38.40
2022-11-23T04:10:45.236Z,38.30
2022-11-23T04:16:58.662Z,38.40
2022-11-23T04:23:14.615Z,38.40
2022-11-23T04:29:26.976Z,38.20
2022-11-23T04:35:44.265Z,37.80
2022-11-23T04:42:00.337Z,37.70
2022-11-23T04:48:21.986Z,37.80
2022-11-23T04:54:37.743Z,37.80
2022-11-23T05:00:51.065Z,37.70
2022-11-23T05:07:05.526Z,37.40
2022-11-23T05:13:22.091Z,37.40
2022-11-23T05:19:37.952Z,37.60
2022-11-23T05:25:51.319Z,37.70
2022-11-23T05:32:05.006Z,37.60
2022-11-23T05:38:20.901Z,37.20
2022-11-23T05:44:36.489Z,37.40
2022-11-23T05:50:50.012Z,37.50
2022-11-23T05:57:07.153Z,37.60
2022-11-23T06:03:22.738Z,37.60
2022-11-23T06:09:35.148Z,37.90
2022-11-23T06:15:51.513Z,37.60
2022-11-23T06:22:08.239Z,37.70
2022-11-23T06:28:23.129Z,37.70
2022-11-23T06:34:34.181Z,37.70
2022-11-23T06:40:46.750Z,37.80
2022-11-23T06:47:02.933Z,38.20
2022-11-23T06:53:14.845Z,38.50
2022-11-23T06:59:33.816Z,38.80
2022-11-23T07:05:49.107Z,38.40
2022-11-23T07:12:04.982Z,38.40
2022-11-23T07:18:18.185Z,38.60
2022-11-23T07:24:38.597Z,38.50
2022-11-23T07:30:47.489Z,38.40
2022-11-23T07:37:02.331Z,38.00
2022-11-23T07:43:16.534Z,38.00
2022-11-23T07:49:34.911Z,38.00
2022-11-23T07:55:50.831Z,38.10
2022-11-23T08:02:04.158Z,38.00
2022-11-23T08:08:17.641Z,37.70
2022-11-23T08:21:32.525Z,37.70
2022-11-23T08:27:43.659Z,37.70
2022-11-23T08:33:58.826Z,37.60
2022-11-23T08:40:12.188Z,37.30
2022-11-23T08:46:28.372Z,37.40
2022-11-23T08:52:41.928Z,37.50
2022-11-23T08:58:54.011Z,37.40
2022-11-23T09:05:08.695Z,37.40
2022-11-23T09:11:22.024Z,37.30
2022-11-23T09:17:36.651Z,37.30
2022-11-23T09:23:51.806Z,37.40
2022-11-23T09:30:09.000Z,37.20
2022-11-23T09:36:22.280Z,37.20
2022-11-23T09:42:51.328Z,37.00
2022-11-23T09:49:25.288Z,37.20
2022-11-23T09:55:41.043Z,37.30
2022-11-23T10:01:57.832Z,36.90
2022-11-23T10:08:16.962Z,37.00
2022-11-23T10:14:39.668Z,37.20
2022-11-23T10:21:04.337Z,37.20
2022-11-23T10:27:19.202Z,37.20
2022-11-23T10:33:34.947Z,37.40
2022-11-23T10:39:48.054Z,37.30
2022-11-23T10:46:07.596Z,36.90
2022-11-23T10:52:32.296Z,37.10
2022-11-23T10:58:49.382Z,37.20
2022-11-23T11:04:59.600Z,37.30
2022-11-23T11:11:14.289Z,37.40
2022-11-23T11:17:34.653Z,37.40
2022-11-23T11:23:52.131Z,37.10
2022-11-23T11:30:07.667Z,37.30
2022-11-23T11:36:22.019Z,37.40
2022-11-23T11:42:39.127Z,37.50
2022-11-23T11:48:48.024Z,37.70
2022-11-23T11:55:01.193Z,37.30
2022-11-23T12:01:16.105Z,37.10
2022-11-23T12:07:27.561Z,37.40
2022-11-23T12:13:43.394Z,37.60
2022-11-23T12:19:57.559Z,37.80
2022-11-23T12:26:16.543Z,37.60
2022-11-23T12:32:34.272Z,37.60
2022-11-23T12:38:51.420Z,37.60
2022-11-23T12:45:31.557Z,37.60
2022-11-23T12:51:49.204Z,37.50
2022-11-23T12:58:03.270Z,38.10
2022-11-23T13:04:44.626Z,37.60
2022-11-23T13:11:00.982Z,37.70
2022-11-23T13:17:26.322Z,37.80
2022-11-23T13:23:43.445Z,37.20
2022-11-23T13:30:02.487Z,36.70
2022-11-23T13:36:19.971Z,37.50
2022-11-23T13:42:31.455Z,37.90
2022-11-23T13:48:57.712Z,37.90
2022-11-23T13:55:14.820Z,36.90
2022-11-23T14:02:00.386Z,37.50
2022-11-23T14:08:13.411Z,37.60
2022-11-23T14:14:25.223Z,38.60
2022-11-23T14:21:18.313Z,38.50
2022-11-23T14:27:48.206Z,38.00
2022-11-23T14:34:05.136Z,37.40
2022-11-23T14:40:20.152Z,38.10
2022-11-23T14:46:36.948Z,38.60
2022-11-23T14:52:50.370Z,38.70
2022-11-23T14:59:09.159Z,38.70
2022-11-23T15:05:26.803Z,38.90
2022-11-23T15:11:42.925Z,38.10
2022-11-23T15:18:04.276Z,38.10
2022-11-23T15:24:31.496Z,38.30
2022-11-23T15:30:47.899Z,38.30
2022-11-23T15:37:02.164Z,37.90
2022-11-23T15:43:21.372Z,37.60
2022-11-23T15:49:35.122Z,37.60
2022-11-23T15:55:54.748Z,37.90
2022-11-23T16:02:13.532Z,37.00
2022-11-23T16:08:32.359Z,37.30
2022-11-23T16:14:48.241Z,37.10
2022-11-23T16:21:03.404Z,36.60
2022-11-23T16:27:29.441Z,36.50
2022-11-23T16:33:47.840Z,36.60
2022-11-23T16:40:03.116Z,36.60
2022-11-23T16:46:18.675Z,36.60
2022-11-23T16:52:32.689Z,36.50
2022-11-23T16:58:48.894Z,36.70
2022-11-23T17:05:02.845Z,36.40
2022-11-23T17:11:17.293Z,36.40
2022-11-23T17:17:33.168Z,36.60
2022-11-23T17:23:46.684Z,36.70
2022-11-23T17:30:00.137Z,36.60
2022-11-23T17:36:15.143Z,36.20
2022-11-23T17:42:28.607Z,36.10
2022-11-23T17:48:44.658Z,36.10
2022-11-23T17:55:00.370Z,36.10
2022-11-23T18:01:17.901Z,36.00
2022-11-23T18:07:34.844Z,36.00
2022-11-23T18:13:50.747Z,36.00
2022-11-23T18:20:05.344Z,37.30
2022-11-23T18:26:26.534Z,37.50
2022-11-23T18:32:42.176Z,36.60
2022-11-23T18:39:00.354Z,36.80
2022-11-23T18:45:14.915Z,37.00
2022-11-23T18:51:25.863Z,37.20
2022-11-23T18:57:39.102Z,37.20
2022-11-23T19:03:55.006Z,37.30
2022-11-23T19:10:23.999Z,37.20
2022-11-23T19:16:46.569Z,37.50
2022-11-23T19:23:04.909Z,37.60
2022-11-23T19:29:24.813Z,37.60
2022-11-23T19:35:43.911Z,37.60
2022-11-23T19:42:05.188Z,37.70
2022-11-23T19:48:25.695Z,37.60
2022-11-23T19:54:43.374Z,37.70
2022-11-23T20:00:56.237Z,37.60
2022-11-23T20:07:11.059Z,37.70
2022-11-23T20:13:25.435Z,37.70
2022-11-23T20:19:42.766Z,37.60
2022-11-23T20:26:05.735Z,38.00
2022-11-23T20:32:19.474Z,37.70
2022-11-23T20:38:36.230Z,36.90
2022-11-23T20:44:54.530Z,37.20
2022-11-23T20:51:10.657Z,37.40
2022-11-23T20:57:27.106Z,37.50
2022-11-23T21:03:41.429Z,37.70
2022-11-23T21:09:56.372Z,37.70
2022-11-23T21:16:17.169Z,37.60
2022-11-23T21:22:32.276Z,38.60
2022-11-23T21:28:49.726Z,38.00
2022-11-23T21:35:09.019Z,37.10
2022-11-23T21:41:19.267Z,37.30
2022-11-23T21:47:35.830Z,37.90
2022-11-23T21:53:49.871Z,38.70
2022-11-23T22:00:07.139Z,38.80
2022-11-23T22:06:20.815Z,38.90
2022-11-23T22:12:38.297Z,39.00
2022-11-23T22:18:55.513Z,39.80
2022-11-23T22:25:09.641Z,39.40
2022-11-23T22:31:28.438Z,38.60
2022-11-23T22:37:47.864Z,38.90
2022-11-23T22:44:04.404Z,38.90
2022-11-23T22:50:12.822Z,39.50
2022-11-23T22:56:28.076Z,39.50
2022-11-23T23:02:44.666Z,39.60
2022-11-23T23:09:00.981Z,39.40
2022-11-23T23:15:16.458Z,39.40
2022-11-23T23:21:32.305Z,38.70
2022-11-23T23:27:47.984Z,38.20
2022-11-23T23:33:59.564Z,38.70
2022-11-23T23:40:14.972Z,38.80
2022-11-23T23:46:25.142Z,39.20
2022-11-23T23:52:36.698Z,39.50
2022-11-23T23:58:47.931Z,39.80
